Terminal Aerodrome Forecast
Issued by NWS Sioux Falls, SD

Home | Current Version | Previous Version | Text Only | Print | Product List | Glossary Off
Versions: 1 2 3 4 5 6 7 8 9 10 11 12 13 14 15 16 17 18 19 20

000
FTUS43 KFSD 271140
TAFHON
TAF
KHON 271140Z 2712/2812 VRB03KT P6SM FEW025 SCT150
     FM271500 13008KT P6SM OVC035
      TEMPO 2715/2718 P6SM BKN025
     FM272100 14012KT P6SM BKN080
     FM280900 16006KT P6SM SCT100=

USA.gov is the U.S. government's official web portal to all federal, state and local government web resources and services.